< < Back
Terminal Aerodrome Forecast


Current Version              Previous Versions:   1  2  3  4  5  6  7  8  9  

Terminal Aerodrome Forecast

176
FTUS44 KHUN 282320
TAFHSV
TAF
KHSV 282320Z 2900/2924 05005KT P6SM VCSH SCT050 SCT250
     FM290300 VRB03KT P6SM SCT250
      TEMPO 2910/2913 4SM BR
     FM291400 10007KT P6SM SCT040 SCT250=

Latest METAR

204
SAUS80 KWBC 292000
MTRHSV
METAR KHSV 291953Z 05010KT 10SM SCT055 35/19 A3008 RMK AO2 SLP177
T03500194


USA.gov is the U.S. government's official web portal to all federal, state and local government web resources and services.